Time;durP1;ratioP1;P1;durP2;ratioP2;P2;SDS_P1;SDS_P2;PMS_P1;PMS_P2;Temp;Humidity;BMP_temperature;BMP_pressure;BME280_temperature;BME280_humidity;BME280_pressure;Samples;Min_cycle;Max_cycle;Signal;HPM_P1;HPM_P2
2023/10/31 00:00:18;;;;;;;12.63;7.03;;;;;;;;;;5033817;28;20440;-65
2023/10/31 00:02:44;;;;;;;10.80;6.72;;;;;;;;;;5051289;28;20502;-65
2023/10/31 00:05:10;;;;;;;11.82;6.60;;;;;;;;;;5050971;28;20041;-65
2023/10/31 00:07:36;;;;;;;9.65;6.35;;;;;;;;;;5051402;28;20447;-65
2023/10/31 00:10:02;;;;;;;8.10;6.15;;;;;;;;;;5051300;28;20043;-65
2023/10/31 00:12:28;;;;;;;7.10;5.85;;;;;;;;;;5051398;28;20064;-65
2023/10/31 00:14:54;;;;;;;8.32;5.75;;;;;;;;;;5051637;28;20041;-65
2023/10/31 00:17:20;;;;;;;7.88;5.72;;;;;;;;;;5050855;28;20041;-65
2023/10/31 00:19:46;;;;;;;6.55;5.20;;;;;;;;;;5051270;28;20068;-65
2023/10/31 00:22:12;;;;;;;8.50;3.88;;;;;;;;;;5051472;28;20530;-65
2023/10/31 00:24:38;;;;;;;4.90;3.40;;;;;;;;;;5050730;28;20040;-65
2023/10/31 00:27:04;;;;;;;2.80;2.17;;;;;;;;;;5033116;28;20083;-65
2023/10/31 00:29:30;;;;;;;4.28;1.92;;;;;;;;;;5051001;28;20040;-65
2023/10/31 00:31:56;;;;;;;2.20;1.80;;;;;;;;;;5050471;28;20140;-65
2023/10/31 00:34:22;;;;;;;3.08;1.67;;;;;;;;;;5032807;28;20123;-65
2023/10/31 00:36:48;;;;;;;2.67;1.50;;;;;;;;;;5051182;28;20472;-65
2023/10/31 00:39:14;;;;;;;1.92;1.25;;;;;;;;;;5050928;28;20105;-65
2023/10/31 00:41:45;;;;;;;1.85;1.30;;;;;;;;;;5050723;28;20411;-65
2023/10/31 00:44:11;;;;;;;1.45;1.30;;;;;;;;;;5032952;28;20041;-65
2023/10/31 00:46:37;;;;;;;6.25;1.23;;;;;;;;;;5050374;28;20048;-65
2023/10/31 00:49:04;;;;;;;1.92;1.50;;;;;;;;;;5051227;28;20463;-65
2023/10/31 00:51:30;;;;;;;2.53;1.42;;;;;;;;;;5050832;28;20044;-65
2023/10/31 00:53:56;;;;;;;1.58;1.40;;;;;;;;;;5050303;28;20052;-65
2023/10/31 00:56:21;;;;;;;2.38;1.50;;;;;;;;;;5050466;28;20040;-65
2023/10/31 00:58:48;;;;;;;2.25;1.50;;;;;;;;;;5050614;28;20099;-65
2023/10/31 01:01:14;;;;;;;2.72;1.40;;;;;;;;;;5050289;28;20231;-65
2023/10/31 01:03:40;;;;;;;2.65;1.10;;;;;;;;;;5050524;28;20087;-65
2023/10/31 01:06:06;;;;;;;1.42;0.98;;;;;;;;;;5050272;28;20041;-65
2023/10/31 01:08:32;;;;;;;1.63;0.80;;;;;;;;;;5049978;28;20341;-65
2023/10/31 01:10:58;;;;;;;2.42;0.80;;;;;;;;;;5032487;28;20045;-65
2023/10/31 01:13:24;;;;;;;1.67;0.90;;;;;;;;;;5050831;28;20045;-65
2023/10/31 01:15:50;;;;;;;3.03;0.70;;;;;;;;;;5049872;28;20369;-65
2023/10/31 01:18:16;;;;;;;1.70;0.80;;;;;;;;;;5050320;28;20044;-65
2023/10/31 01:20:42;;;;;;;1.90;0.65;;;;;;;;;;5050147;28;20033;-65
2023/10/31 01:23:08;;;;;;;1.40;0.68;;;;;;;;;;5049766;28;20556;-65
2023/10/31 01:25:34;;;;;;;1.50;0.52;;;;;;;;;;5032390;28;20067;-65
2023/10/31 01:28:00;;;;;;;3.25;0.50;;;;;;;;;;5050174;28;20037;-65
2023/10/31 01:30:26;;;;;;;1.20;0.60;;;;;;;;;;5031999;28;20311;-65
2023/10/31 01:32:52;;;;;;;3.63;0.60;;;;;;;;;;5049931;28;20216;-65
2023/10/31 01:35:18;;;;;;;3.65;0.57;;;;;;;;;;5049666;28;20041;-65
2023/10/31 01:37:44;;;;;;;2.38;0.60;;;;;;;;;;5049159;28;20049;-65
2023/10/31 01:40:14;;;;;;;2.80;0.50;;;;;;;;;;5031503;28;20048;-65
2023/10/31 01:42:40;;;;;;;4.55;1.00;;;;;;;;;;5049742;28;20178;-65
2023/10/31 01:45:06;;;;;;;4.28;0.75;;;;;;;;;;5049553;28;20075;-65
2023/10/31 01:47:32;;;;;;;4.40;1.15;;;;;;;;;;5014995;28;20040;-65
2023/10/31 01:49:59;;;;;;;2.95;0.90;;;;;;;;;;5049587;28;20040;-65
2023/10/31 01:52:25;;;;;;;4.78;0.80;;;;;;;;;;5031510;28;20430;-65
2023/10/31 01:54:51;;;;;;;1.52;0.75;;;;;;;;;;5049103;28;20515;-65
2023/10/31 01:57:19;;;;;;;3.40;0.80;;;;;;;;;;5049448;28;20055;-65
2023/10/31 01:59:45;;;;;;;1.05;0.65;;;;;;;;;;5049396;28;20425;-65
2023/10/31 02:02:12;;;;;;;2.85;0.90;;;;;;;;;;5049512;28;20164;-65
2023/10/31 02:04:38;;;;;;;3.33;1.35;;;;;;;;;;5049426;28;20549;-65
2023/10/31 02:07:04;;;;;;;1.65;0.85;;;;;;;;;;5049345;28;20132;-65
2023/10/31 02:09:30;;;;;;;3.55;1.02;;;;;;;;;;5049208;28;20140;-65
2023/10/31 02:11:56;;;;;;;3.28;1.15;;;;;;;;;;5049552;28;20041;-65
2023/10/31 02:14:23;;;;;;;4.03;1.13;;;;;;;;;;5049691;28;20368;-65
2023/10/31 02:16:49;;;;;;;2.78;1.13;;;;;;;;;;5048861;28;20143;-65
2023/10/31 02:19:16;;;;;;;4.55;1.20;;;;;;;;;;5048867;28;20071;-65
2023/10/31 02:21:42;;;;;;;4.57;1.33;;;;;;;;;;5049067;28;20052;-65
2023/10/31 02:24:08;;;;;;;2.50;1.27;;;;;;;;;;5049222;28;20033;-65
2023/10/31 02:26:35;;;;;;;4.53;1.58;;;;;;;;;;5049615;28;20433;-65
2023/10/31 02:29:01;;;;;;;3.10;1.33;;;;;;;;;;5052087;28;20037;-65
2023/10/31 02:31:28;;;;;;;6.35;1.70;;;;;;;;;;5052785;28;20049;-65
2023/10/31 02:33:54;;;;;;;5.68;1.40;;;;;;;;;;5053519;28;20456;-65
2023/10/31 02:36:20;;;;;;;5.45;1.40;;;;;;;;;;5052977;28;20123;-65
2023/10/31 02:38:46;;;;;;;6.53;2.00;;;;;;;;;;5052963;28;20037;-65
2023/10/31 02:41:12;;;;;;;11.57;1.70;;;;;;;;;;5053259;28;20037;-65
2023/10/31 02:43:38;;;;;;;4.68;1.30;;;;;;;;;;5052912;28;20112;-65
2023/10/31 02:46:05;;;;;;;5.45;1.67;;;;;;;;;;5052920;28;20415;-65
2023/10/31 02:48:39;;;;;;;5.60;1.60;;;;;;;;;;5035236;28;20444;-65
2023/10/31 02:51:08;;;;;;;4.40;1.27;;;;;;;;;;5053144;28;20045;-65
2023/10/31 02:53:35;;;;;;;5.18;1.73;;;;;;;;;;5052693;28;20060;-65
2023/10/31 02:56:01;;;;;;;6.78;2.03;;;;;;;;;;5053068;28;20120;-65
2023/10/31 02:58:27;;;;;;;6.25;2.75;;;;;;;;;;5053070;28;20132;-65
2023/10/31 03:00:53;;;;;;;4.35;2.22;;;;;;;;;;5052305;28;20045;-65
2023/10/31 03:03:19;;;;;;;6.03;2.58;;;;;;;;;;5052753;28;20044;-65
2023/10/31 03:05:45;;;;;;;5.05;2.50;;;;;;;;;;5052786;28;20403;-65
2023/10/31 03:08:12;;;;;;;8.25;2.95;;;;;;;;;;5052301;28;20099;-65
2023/10/31 03:10:39;;;;;;;6.28;2.95;;;;;;;;;;5052553;28;20049;-65
2023/10/31 03:13:05;;;;;;;7.72;2.95;;;;;;;;;;5052655;28;20060;-65
2023/10/31 03:15:31;;;;;;;5.50;2.70;;;;;;;;;;5052211;28;20128;-65
2023/10/31 03:17:57;;;;;;;4.82;2.83;;;;;;;;;;5052543;28;20041;-65
2023/10/31 03:20:23;;;;;;;7.00;2.90;;;;;;;;;;5052279;28;20049;-65
2023/10/31 03:22:49;;;;;;;4.57;2.63;;;;;;;;;;5052031;28;20126;-65
2023/10/31 03:25:15;;;;;;;4.97;2.55;;;;;;;;;;5052154;28;20123;-65
2023/10/31 03:27:41;;;;;;;8.40;3.20;;;;;;;;;;5052281;28;20514;-65
2023/10/31 03:30:07;;;;;;;6.32;2.50;;;;;;;;;;5052257;28;20039;-65
2023/10/31 03:32:33;;;;;;;5.35;3.00;;;;;;;;;;5052322;28;20036;-65
2023/10/31 03:34:59;;;;;;;8.02;2.83;;;;;;;;;;5052511;28;20538;-65
2023/10/31 03:37:25;;;;;;;6.00;2.83;;;;;;;;;;5047871;28;20361;-65
2023/10/31 03:39:51;;;;;;;6.38;2.90;;;;;;;;;;5050501;28;20130;-65
2023/10/31 03:42:17;;;;;;;5.43;2.55;;;;;;;;;;5052144;28;20033;-65
2023/10/31 03:44:43;;;;;;;9.88;3.25;;;;;;;;;;5051620;28;20033;-65
2023/10/31 03:47:09;;;;;;;7.28;2.90;;;;;;;;;;5051507;28;20068;-65
2023/10/31 03:49:38;;;;;;;8.02;3.28;;;;;;;;;;5052242;28;20192;-65
2023/10/31 03:52:04;;;;;;;8.32;2.90;;;;;;;;;;5051662;28;20422;-65
2023/10/31 03:54:30;;;;;;;7.28;2.67;;;;;;;;;;5051669;28;20143;-65
2023/10/31 03:56:56;;;;;;;3.97;1.85;;;;;;;;;;5051433;28;20391;-65
2023/10/31 03:59:22;;;;;;;3.42;1.60;;;;;;;;;;5051312;28;20041;-65
2023/10/31 04:01:48;;;;;;;3.38;1.70;;;;;;;;;;5051925;28;20041;-65
2023/10/31 04:04:14;;;;;;;2.67;2.10;;;;;;;;;;5051731;28;20037;-65
2023/10/31 04:06:41;;;;;;;5.55;2.60;;;;;;;;;;5051048;28;20044;-65
2023/10/31 04:09:07;;;;;;;5.43;2.83;;;;;;;;;;5051557;28;20049;-65
2023/10/31 04:11:33;;;;;;;6.43;2.55;;;;;;;;;;5051572;28;20387;-65
2023/10/31 04:13:59;;;;;;;4.55;2.50;;;;;;;;;;5051090;28;20097;-65
2023/10/31 04:16:25;;;;;;;4.00;1.80;;;;;;;;;;5051266;28;20049;-65
2023/10/31 04:18:51;;;;;;;5.30;2.30;;;;;;;;;;5051418;28;20442;-65
2023/10/31 04:21:17;;;;;;;7.47;1.90;;;;;;;;;;5050630;28;20044;-65
2023/10/31 04:23:43;;;;;;;3.25;1.67;;;;;;;;;;5051491;28;20399;-65
2023/10/31 04:26:09;;;;;;;2.05;1.40;;;;;;;;;;5051304;28;20110;-65
2023/10/31 04:28:35;;;;;;;4.47;1.50;;;;;;;;;;5050890;28;20053;-65
2023/10/31 04:31:01;;;;;;;3.97;1.42;;;;;;;;;;5051129;28;20037;-65
2023/10/31 04:33:27;;;;;;;3.33;1.67;;;;;;;;;;5050737;28;20443;-65
2023/10/31 04:35:54;;;;;;;3.22;1.45;;;;;;;;;;5050507;28;20041;-65
2023/10/31 04:38:20;;;;;;;3.67;1.50;;;;;;;;;;5051227;28;20373;-65
2023/10/31 04:40:46;;;;;;;4.38;1.40;;;;;;;;;;5050758;28;20041;-65
2023/10/31 04:43:12;;;;;;;5.82;1.30;;;;;;;;;;5050717;28;20454;-65
2023/10/31 04:45:38;;;;;;;5.93;1.50;;;;;;;;;;5050531;28;20380;-65
2023/10/31 04:48:04;;;;;;;3.60;1.30;;;;;;;;;;5050818;28;20346;-65
2023/10/31 04:50:30;;;;;;;8.05;1.50;;;;;;;;;;5050435;28;20049;-65
2023/10/31 04:52:56;;;;;;;5.43;1.63;;;;;;;;;;5032431;28;20450;-65
2023/10/31 04:55:22;;;;;;;4.65;1.38;;;;;;;;;;5050555;28;20132;-65
2023/10/31 04:57:48;;;;;;;5.00;1.73;;;;;;;;;;5050296;28;20048;-65
2023/10/31 05:00:14;;;;;;;4.53;1.50;;;;;;;;;;5050552;28;20438;-65
2023/10/31 05:02:40;;;;;;;3.60;1.30;;;;;;;;;;5050751;28;20490;-65
2023/10/31 05:05:06;;;;;;;5.03;1.27;;;;;;;;;;5032062;28;20105;-65
2023/10/31 05:07:32;;;;;;;4.53;1.58;;;;;;;;;;5032231;28;20049;-65
2023/10/31 05:09:59;;;;;;;1.92;0.95;;;;;;;;;;5050712;28;20060;-65
2023/10/31 05:12:25;;;;;;;4.65;1.00;;;;;;;;;;5050241;28;20044;-65
2023/10/31 05:14:51;;;;;;;5.85;1.42;;;;;;;;;;5050480;28;20120;-65
2023/10/31 05:17:17;;;;;;;7.10;1.40;;;;;;;;;;5049958;28;20124;-65
2023/10/31 05:19:43;;;;;;;6.75;1.40;;;;;;;;;;5050034;28;20097;-65
2023/10/31 05:22:09;;;;;;;3.92;1.30;;;;;;;;;;5050622;28;20387;-65
2023/10/31 05:24:36;;;;;;;5.50;1.42;;;;;;;;;;5049788;28;20036;-65
2023/10/31 05:27:02;;;;;;;5.72;1.42;;;;;;;;;;5049429;28;20041;-65
2023/10/31 05:29:30;;;;;;;4.00;1.40;;;;;;;;;;5049971;28;20130;-65
2023/10/31 05:31:56;;;;;;;4.97;1.60;;;;;;;;;;5050274;28;20044;-65
2023/10/31 05:34:22;;;;;;;3.63;1.38;;;;;;;;;;5049795;28;20060;-65
2023/10/31 05:36:48;;;;;;;5.50;1.77;;;;;;;;;;5049756;28;20040;-65
2023/10/31 05:39:15;;;;;;;5.55;1.60;;;;;;;;;;5050082;28;20041;-65
2023/10/31 05:41:41;;;;;;;3.45;1.45;;;;;;;;;;5049585;28;20040;-65
2023/10/31 05:44:07;;;;;;;6.72;1.70;;;;;;;;;;5031524;28;20542;-65
2023/10/31 05:46:38;;;;;;;4.07;2.15;;;;;;;;;;5049693;28;20091;-65
2023/10/31 05:49:07;;;;;;;4.43;1.80;;;;;;;;;;5049576;28;20522;-65
2023/10/31 05:51:33;;;;;;;5.22;1.80;;;;;;;;;;5049792;28;20131;-65
2023/10/31 05:53:59;;;;;;;4.65;1.80;;;;;;;;;;5049049;28;20049;-65
2023/10/31 05:56:25;;;;;;;7.15;1.90;;;;;;;;;;5049331;28;20048;-65
2023/10/31 05:58:51;;;;;;;6.35;2.08;;;;;;;;;;5049404;28;20041;-65
2023/10/31 06:01:17;;;;;;;5.80;2.35;;;;;;;;;;5049319;28;20116;-65
2023/10/31 06:03:44;;;;;;;5.25;1.85;;;;;;;;;;5048778;28;20040;-65
2023/10/31 06:06:10;;;;;;;4.20;1.48;;;;;;;;;;5049414;28;20041;-65
2023/10/31 06:08:36;;;;;;;5.30;1.60;;;;;;;;;;5031396;28;20041;-65
2023/10/31 06:11:03;;;;;;;4.75;1.27;;;;;;;;;;5049402;28;20464;-65
2023/10/31 06:13:31;;;;;;;4.60;1.20;;;;;;;;;;5049138;28;20041;-65
2023/10/31 06:15:57;;;;;;;5.18;1.38;;;;;;;;;;5049185;28;20041;-65
2023/10/31 06:18:24;;;;;;;1.73;0.90;;;;;;;;;;5049404;28;20484;-65
2023/10/31 06:20:50;;;;;;;3.25;1.38;;;;;;;;;;5048957;28;20421;-65
2023/10/31 06:23:16;;;;;;;3.05;1.23;;;;;;;;;;5049703;28;20124;-65
2023/10/31 06:25:42;;;;;;;5.45;1.35;;;;;;;;;;5049055;28;20047;-65
2023/10/31 06:28:08;;;;;;;2.15;1.40;;;;;;;;;;5048702;28;20486;-65
2023/10/31 06:30:34;;;;;;;5.15;1.90;;;;;;;;;;5049533;28;20044;-65
2023/10/31 06:33:00;;;;;;;4.47;1.60;;;;;;;;;;5049154;28;20102;-65
2023/10/31 06:35:26;;;;;;;5.97;1.58;;;;;;;;;;5049062;28;20041;-65
2023/10/31 06:37:59;;;;;;;5.25;1.98;;;;;;;;;;5049185;28;20182;-65
2023/10/31 06:40:25;;;;;;;4.38;1.77;;;;;;;;;;5031100;28;20048;-65
2023/10/31 06:42:51;;;;;;;4.72;2.38;;;;;;;;;;5048882;28;20040;-65
2023/10/31 06:45:17;;;;;;;5.07;2.30;;;;;;;;;;5048903;28;20064;-65
2023/10/31 06:47:43;;;;;;;8.60;2.58;;;;;;;;;;5049499;28;20029;-65
2023/10/31 06:50:10;;;;;;;10.32;2.63;;;;;;;;;;5048940;28;20086;-65
2023/10/31 06:52:36;;;;;;;4.72;3.08;;;;;;;;;;5049186;28;20496;-65
2023/10/31 06:55:02;;;;;;;8.55;3.28;;;;;;;;;;5048714;28;20415;-65
2023/10/31 06:57:28;;;;;;;7.30;3.20;;;;;;;;;;5048457;28;20107;-65
2023/10/31 06:59:54;;;;;;;8.77;3.30;;;;;;;;;;5048825;28;20049;-65
2023/10/31 07:02:20;;;;;;;6.97;3.85;;;;;;;;;;5049061;28;20060;-65
2023/10/31 07:04:46;;;;;;;11.10;4.28;;;;;;;;;;5048292;28;20037;-65
2023/10/31 07:07:12;;;;;;;6.72;4.32;;;;;;;;;;5030873;28;20049;-65
2023/10/31 07:09:38;;;;;;;10.52;4.60;;;;;;;;;;5031229;28;20453;-65
2023/10/31 07:12:04;;;;;;;7.60;4.93;;;;;;;;;;5030807;28;20048;-65
2023/10/31 07:14:30;;;;;;;10.85;5.35;;;;;;;;;;5050150;28;20410;-65
2023/10/31 07:16:57;;;;;;;9.70;5.25;;;;;;;;;;5052349;28;20041;-65
2023/10/31 07:19:23;;;;;;;10.18;5.80;;;;;;;;;;5052084;28;20091;-65
2023/10/31 07:21:49;;;;;;;9.23;5.75;;;;;;;;;;5052374;28;20069;-65
2023/10/31 07:24:15;;;;;;;15.68;6.25;;;;;;;;;;5052428;28;20126;-65
2023/10/31 07:26:41;;;;;;;13.10;6.70;;;;;;;;;;5034002;28;20052;-65
2023/10/31 07:29:07;;;;;;;10.50;6.15;;;;;;;;;;5052257;28;20407;-65
2023/10/31 07:31:33;;;;;;;14.10;7.10;;;;;;;;;;5052600;28;20072;-65
2023/10/31 07:33:59;;;;;;;11.75;6.20;;;;;;;;;;5051033;28;20040;-66
2023/10/31 07:36:25;;;;;;;12.65;6.60;;;;;;;;;;5034236;28;20053;-66
2023/10/31 07:38:51;;;;;;;11.25;6.75;;;;;;;;;;5052391;28;20532;-66
2023/10/31 07:41:17;;;;;;;8.48;5.82;;;;;;;;;;5051657;28;20051;-65
2023/10/31 07:43:43;;;;;;;11.32;5.70;;;;;;;;;;5032064;28;20037;-65
2023/10/31 07:46:09;;;;;;;10.68;5.53;;;;;;;;;;5054398;28;20045;-65
2023/10/31 07:48:36;;;;;;;10.77;4.85;;;;;;;;;;5052137;28;20041;-65
2023/10/31 07:51:02;;;;;;;5.90;4.70;;;;;;;;;;5052852;28;20247;-65
2023/10/31 07:53:28;;;;;;;5.93;5.15;;;;;;;;;;5052462;28;20525;-65
2023/10/31 07:55:54;;;;;;;9.00;4.30;;;;;;;;;;5052326;28;20053;-65
2023/10/31 07:58:20;;;;;;;9.23;3.42;;;;;;;;;;5052618;28;20610;-65
2023/10/31 08:00:46;;;;;;;6.53;3.40;;;;;;;;;;5052331;28;20087;-65
2023/10/31 08:03:12;;;;;;;8.05;3.13;;;;;;;;;;5052979;28;20059;-65
2023/10/31 08:05:38;;;;;;;5.07;2.55;;;;;;;;;;5051952;28;20393;-65
2023/10/31 08:08:05;;;;;;;6.55;2.15;;;;;;;;;;5053135;28;20045;-65
2023/10/31 08:10:31;;;;;;;9.93;2.60;;;;;;;;;;5052317;28;20047;-65
2023/10/31 08:12:57;;;;;;;5.28;2.30;;;;;;;;;;5052092;28;20083;-65
2023/10/31 08:15:23;;;;;;;5.10;2.17;;;;;;;;;;5052142;28;20044;-66
2023/10/31 08:17:49;;;;;;;6.00;2.55;;;;;;;;;;5052079;28;20068;-65
2023/10/31 08:20:15;;;;;;;6.57;2.13;;;;;;;;;;5034164;28;20051;-65
2023/10/31 08:22:42;;;;;;;4.53;1.77;;;;;;;;;;5034503;28;20048;-65
2023/10/31 08:25:08;;;;;;;3.85;2.20;;;;;;;;;;5016872;28;20040;-65
2023/10/31 08:27:35;;;;;;;5.13;2.33;;;;;;;;;;5051601;28;20099;-65
2023/10/31 08:30:01;;;;;;;8.30;2.53;;;;;;;;;;5052109;28;20048;-65
2023/10/31 08:32:28;;;;;;;7.05;2.15;;;;;;;;;;5028831;28;20560;-65
2023/10/31 08:34:56;;;;;;;7.80;1.90;;;;;;;;;;5052359;28;20214;-66
2023/10/31 08:37:22;;;;;;;7.22;2.22;;;;;;;;;;5033277;28;20053;-66
2023/10/31 08:39:48;;;;;;;4.80;2.05;;;;;;;;;;5051604;28;20045;-65
2023/10/31 08:42:14;;;;;;;6.25;1.98;;;;;;;;;;5051143;28;20044;-65
2023/10/31 08:44:41;;;;;;;4.47;1.65;;;;;;;;;;5051822;28;20057;-65
2023/10/31 08:47:07;;;;;;;3.47;1.50;;;;;;;;;;5051363;28;20036;-65
2023/10/31 08:49:33;;;;;;;6.10;1.92;;;;;;;;;;5051773;28;20036;-65
2023/10/31 08:52:01;;;;;;;6.43;1.60;;;;;;;;;;5051712;28;20597;-65
2023/10/31 08:54:28;;;;;;;6.30;0.98;;;;;;;;;;5050780;28;20587;-65
2023/10/31 08:56:54;;;;;;;9.75;1.20;;;;;;;;;;5051434;28;20045;-65
2023/10/31 08:59:20;;;;;;;4.78;0.80;;;;;;;;;;5051240;28;20044;-65
2023/10/31 09:01:46;;;;;;;2.92;0.88;;;;;;;;;;5050956;28;20643;-65
2023/10/31 09:04:12;;;;;;;2.75;0.63;;;;;;;;;;5051096;28;20427;-64
2023/10/31 09:06:38;;;;;;;3.72;0.93;;;;;;;;;;5050891;28;20048;-64
2023/10/31 09:09:04;;;;;;;2.92;0.80;;;;;;;;;;5050928;28;20065;-64
2023/10/31 09:11:30;;;;;;;6.47;0.82;;;;;;;;;;5017034;28;20704;-64
2023/10/31 09:13:56;;;;;;;6.05;1.02;;;;;;;;;;5051395;28;20415;-65
2023/10/31 09:16:22;;;;;;;3.13;0.73;;;;;;;;;;5050905;28;20049;-64
2023/10/31 09:18:48;;;;;;;4.78;0.98;;;;;;;;;;5032949;28;20068;-64
2023/10/31 09:21:16;;;;;;;9.10;0.77;;;;;;;;;;5063509;28;20288;-64
2023/10/31 09:23:47;;;;;;;4.60;1.13;;;;;;;;;;5059564;28;20521;-64
2023/10/31 09:26:13;;;;;;;3.83;0.63;;;;;;;;;;5066329;28;20032;-65
2023/10/31 09:28:41;;;;;;;2.53;0.60;;;;;;;;;;5033059;28;20088;-64
2023/10/31 09:31:09;;;;;;;1.83;0.50;;;;;;;;;;5054616;28;20045;-64
2023/10/31 09:33:35;;;;;;;3.50;0.60;;;;;;;;;;5053178;28;20040;-65
2023/10/31 09:36:02;;;;;;;6.80;0.88;;;;;;;;;;5052020;28;20123;-65
2023/10/31 09:38:28;;;;;;;2.55;0.50;;;;;;;;;;5050113;28;20049;-65
2023/10/31 09:40:55;;;;;;;3.33;1.02;;;;;;;;;;5051383;28;20053;-64
2023/10/31 09:43:21;;;;;;;3.50;0.60;;;;;;;;;;5051631;28;20033;-65
2023/10/31 09:45:47;;;;;;;1.85;0.45;;;;;;;;;;5050606;28;20047;-65
2023/10/31 09:48:13;;;;;;;3.45;0.63;;;;;;;;;;5056011;28;20094;-65
2023/10/31 09:50:41;;;;;;;3.05;0.40;;;;;;;;;;5051157;28;20044;-65
2023/10/31 09:53:08;;;;;;;1.80;0.30;;;;;;;;;;5050289;28;20041;-65
2023/10/31 09:55:34;;;;;;;3.20;0.40;;;;;;;;;;5054990;28;20060;-64
2023/10/31 09:58:01;;;;;;;2.08;0.50;;;;;;;;;;5051310;28;20104;-64
2023/10/31 10:00:27;;;;;;;5.03;0.57;;;;;;;;;;5050997;28;20529;-65
2023/10/31 10:02:54;;;;;;;1.67;0.30;;;;;;;;;;5031997;28;20048;-66
2023/10/31 10:05:21;;;;;;;1.17;0.40;;;;;;;;;;5050561;28;20396;-66
2023/10/31 10:07:47;;;;;;;1.95;0.32;;;;;;;;;;5050448;28;20065;-64
2023/10/31 10:10:13;;;;;;;0.90;0.22;;;;;;;;;;5050023;28;20087;-64
2023/10/31 10:12:42;;;;;;;1.85;0.40;;;;;;;;;;5049643;28;20080;-64
2023/10/31 10:15:08;;;;;;;0.85;0.20;;;;;;;;;;5050360;28;20037;-64
2023/10/31 10:17:34;;;;;;;0.68;0.32;;;;;;;;;;5049529;28;20464;-64
2023/10/31 10:20:08;;;;;;;1.20;0.40;;;;;;;;;;5050240;28;20052;-65
2023/10/31 10:22:37;;;;;;;2.85;0.40;;;;;;;;;;5050041;28;20492;-65
2023/10/31 10:25:04;;;;;;;2.83;0.52;;;;;;;;;;5049605;28;20044;-65
2023/10/31 10:27:30;;;;;;;2.05;0.45;;;;;;;;;;5050296;28;20052;-65
2023/10/31 10:29:56;;;;;;;2.47;0.38;;;;;;;;;;5050112;28;20049;-64
2023/10/31 10:32:23;;;;;;;5.20;0.88;;;;;;;;;;5031246;28;20128;-64
2023/10/31 10:34:49;;;;;;;2.58;0.38;;;;;;;;;;5050272;28;20041;-64
2023/10/31 10:37:15;;;;;;;2.55;0.80;;;;;;;;;;5049830;28;20731;-64
2023/10/31 10:39:42;;;;;;;3.20;1.00;;;;;;;;;;5049719;28;20067;-64
2023/10/31 10:42:11;;;;;;;3.00;0.60;;;;;;;;;;5050227;28;20073;-64
2023/10/31 10:44:39;;;;;;;3.35;0.40;;;;;;;;;;5031894;28;20037;-65
2023/10/31 10:47:06;;;;;;;4.38;0.90;;;;;;;;;;5031893;28;20147;-65
2023/10/31 10:49:36;;;;;;;3.83;0.50;;;;;;;;;;5051702;28;20059;-65
2023/10/31 10:52:09;;;;;;;1.38;0.47;;;;;;;;;;5035977;28;20554;-65
2023/10/31 10:54:35;;;;;;;;;;;;;;;;;;5053872;28;20152;-66
2023/10/31 10:57:15;;;;;;;6.13;0.50;;;;;;;;;;5053638;28;19967;-65
2023/10/31 10:59:43;;;;;;;4.53;0.98;;;;;;;;;;5054236;28;20106;-65
2023/10/31 11:02:10;;;;;;;5.75;0.50;;;;;;;;;;5052875;28;20037;-65
2023/10/31 11:04:36;;;;;;;5.18;0.80;;;;;;;;;;5053293;28;20115;-65
2023/10/31 11:07:03;;;;;;;4.47;0.57;;;;;;;;;;5053740;28;20040;-65
2023/10/31 11:09:30;;;;;;;3.20;0.63;;;;;;;;;;5035234;28;20159;-65
2023/10/31 11:11:57;;;;;;;9.00;0.85;;;;;;;;;;5053467;28;20127;-65
2023/10/31 11:14:23;;;;;;;2.88;0.65;;;;;;;;;;5053279;28;20056;-65
2023/10/31 11:16:52;;;;;;;3.63;0.57;;;;;;;;;;5052453;28;20033;-65
2023/10/31 11:19:19;;;;;;;3.00;0.68;;;;;;;;;;5053443;28;20044;-64
2023/10/31 11:21:54;;;;;;;1.95;0.60;;;;;;;;;;5053684;28;20060;-66
2023/10/31 11:24:24;;;;;;;4.50;0.70;;;;;;;;;;5034811;28;20098;-66
2023/10/31 11:26:54;;;;;;;3.45;0.73;;;;;;;;;;5053508;28;20040;-65
2023/10/31 11:29:20;;;;;;;3.15;0.70;;;;;;;;;;5055146;28;20037;-65
2023/10/31 11:31:47;;;;;;;2.63;0.70;;;;;;;;;;5052915;28;20073;-65
2023/10/31 11:34:15;;;;;;;3.20;0.50;;;;;;;;;;5052880;28;20095;-65
2023/10/31 11:36:41;;;;;;;5.53;0.65;;;;;;;;;;5052622;28;20049;-65
2023/10/31 11:39:13;;;;;;;4.53;0.68;;;;;;;;;;5052583;28;20080;-65
2023/10/31 11:41:39;;;;;;;4.13;0.52;;;;;;;;;;5034883;28;20469;-64
2023/10/31 11:44:05;;;;;;;5.32;0.60;;;;;;;;;;5053540;28;20044;-65
2023/10/31 11:46:31;;;;;;;2.55;0.50;;;;;;;;;;5052738;28;20045;-65
2023/10/31 11:48:59;;;;;;;1.90;0.43;;;;;;;;;;5052629;28;20060;-65
2023/10/31 11:51:26;;;;;;;2.10;0.70;;;;;;;;;;5053568;28;20059;-66
2023/10/31 11:53:52;;;;;;;2.17;0.60;;;;;;;;;;5052218;28;20055;-65
2023/10/31 11:56:18;;;;;;;1.88;0.43;;;;;;;;;;5053790;28;20145;-66
2023/10/31 11:58:44;;;;;;;0.93;0.40;;;;;;;;;;5053004;28;20086;-65
2023/10/31 12:01:10;;;;;;;2.63;0.55;;;;;;;;;;5033226;28;20574;-65
2023/10/31 12:03:40;;;;;;;1.95;0.50;;;;;;;;;;5052758;28;20037;-66
2023/10/31 12:06:07;;;;;;;3.78;0.57;;;;;;;;;;5052581;28;20051;-66
2023/10/31 12:08:36;;;;;;;2.58;0.52;;;;;;;;;;5052376;28;20044;-66
2023/10/31 12:11:05;;;;;;;2.28;0.47;;;;;;;;;;5034956;28;20045;-66
2023/10/31 12:13:31;;;;;;;2.80;0.63;;;;;;;;;;5052564;28;20048;-65
2023/10/31 12:15:58;;;;;;;1.13;0.43;;;;;;;;;;5052665;28;20129;-65
2023/10/31 12:18:24;;;;;;;3.42;0.52;;;;;;;;;;5052431;28;20036;-65
2023/10/31 12:20:53;;;;;;;2.30;0.60;;;;;;;;;;5034789;28;20056;-64
2023/10/31 12:23:19;;;;;;;2.05;0.55;;;;;;;;;;5051820;28;20037;-65
2023/10/31 12:25:49;;;;;;;2.42;0.73;;;;;;;;;;5051729;28;20037;-64
2023/10/31 12:28:22;;;;;;;3.15;0.40;;;;;;;;;;5053987;28;20044;-65
2023/10/31 12:30:48;;;;;;;1.58;0.70;;;;;;;;;;5052636;28;20468;-65
2023/10/31 12:33:15;;;;;;;2.40;0.50;;;;;;;;;;5052369;28;20469;-65
2023/10/31 12:35:42;;;;;;;2.20;0.60;;;;;;;;;;5052482;28;20124;-65
2023/10/31 12:38:10;;;;;;;3.45;0.63;;;;;;;;;;5052744;28;20398;-65
2023/10/31 12:40:37;;;;;;;2.92;0.50;;;;;;;;;;5052620;28;20047;-65
2023/10/31 12:43:03;;;;;;;2.20;0.50;;;;;;;;;;5052059;28;20518;-65
2023/10/31 12:45:29;;;;;;;4.30;0.70;;;;;;;;;;5054449;28;20072;-65
2023/10/31 12:48:05;;;;;;;2.80;0.80;;;;;;;;;;5052417;28;20524;-65
2023/10/31 12:50:32;;;;;;;3.17;1.00;;;;;;;;;;5051811;28;20041;-65
2023/10/31 12:52:59;;;;;;;5.30;0.85;;;;;;;;;;5050883;28;20981;-64
2023/10/31 12:55:26;;;;;;;2.40;0.70;;;;;;;;;;5052131;28;20055;-65
2023/10/31 12:57:53;;;;;;;3.20;0.60;;;;;;;;;;5051201;28;20048;-65
2023/10/31 13:00:26;;;;;;;6.88;0.98;;;;;;;;;;5051448;28;20041;-65
2023/10/31 13:02:59;;;;;;;3.83;0.60;;;;;;;;;;5046711;28;20039;-65
2023/10/31 13:05:26;;;;;;;2.65;0.80;;;;;;;;;;5052219;28;20037;-65
2023/10/31 13:07:52;;;;;;;3.42;0.60;;;;;;;;;;5062835;28;20434;-65
2023/10/31 13:10:19;;;;;;;3.53;0.68;;;;;;;;;;5052150;28;20105;-65
2023/10/31 13:12:48;;;;;;;3.15;0.52;;;;;;;;;;5051614;28;20056;-65
2023/10/31 13:15:15;;;;;;;3.92;0.80;;;;;;;;;;5041779;28;20099;-65
2023/10/31 13:17:42;;;;;;;6.57;0.80;;;;;;;;;;5035798;28;20086;-66
2023/10/31 13:20:09;;;;;;;3.80;0.80;;;;;;;;;;5052493;28;20399;-66
2023/10/31 13:22:38;;;;;;;3.25;0.98;;;;;;;;;;5051920;28;20060;-66
2023/10/31 13:25:04;;;;;;;7.80;0.98;;;;;;;;;;5052332;28;20067;-66
2023/10/31 13:27:31;;;;;;;3.72;0.70;;;;;;;;;;5033591;28;20033;-66
2023/10/31 13:29:58;;;;;;;4.88;0.80;;;;;;;;;;5051048;28;20041;-66
2023/10/31 13:32:24;;;;;;;4.63;0.55;;;;;;;;;;5051273;28;20036;-66
2023/10/31 13:34:50;;;;;;;1.17;0.40;;;;;;;;;;5050919;28;20047;-66
2023/10/31 13:37:17;;;;;;;1.70;0.47;;;;;;;;;;5050461;28;20049;-67
2023/10/31 13:39:43;;;;;;;4.05;0.65;;;;;;;;;;5051434;28;20037;-67
2023/10/31 13:42:10;;;;;;;2.58;0.65;;;;;;;;;;5050919;28;20099;-67
2023/10/31 13:44:39;;;;;;;4.22;0.52;;;;;;;;;;5050678;28;20049;-67
2023/10/31 13:47:05;;;;;;;2.50;0.80;;;;;;;;;;5032980;28;20102;-67
2023/10/31 13:49:31;;;;;;;3.05;0.60;;;;;;;;;;5033088;28;20040;-67
2023/10/31 13:51:57;;;;;;;3.33;0.75;;;;;;;;;;5050857;28;20388;-67
2023/10/31 13:54:23;;;;;;;4.47;0.60;;;;;;;;;;5050539;28;20055;-67
2023/10/31 13:56:49;;;;;;;3.65;0.52;;;;;;;;;;5050813;28;20049;-67
2023/10/31 13:59:15;;;;;;;3.97;0.70;;;;;;;;;;5050593;28;20093;-67
2023/10/31 14:01:41;;;;;;;2.92;0.60;;;;;;;;;;5050690;28;20487;-67
2023/10/31 14:04:08;;;;;;;1.80;0.50;;;;;;;;;;5051219;28;20360;-67
2023/10/31 14:06:34;;;;;;;1.90;0.40;;;;;;;;;;5050581;28;20526;-67
2023/10/31 14:09:04;;;;;;;5.95;0.95;;;;;;;;;;5051199;28;20476;-67
2023/10/31 14:11:31;;;;;;;1.42;0.60;;;;;;;;;;5016718;28;20124;-67
2023/10/31 14:14:02;;;;;;;1.77;0.40;;;;;;;;;;5050662;28;20041;-67
2023/10/31 14:16:32;;;;;;;3.67;1.07;;;;;;;;;;5050885;28;20084;-67
2023/10/31 14:18:58;;;;;;;4.72;0.82;;;;;;;;;;5032643;28;20041;-67
2023/10/31 14:21:25;;;;;;;1.25;0.55;;;;;;;;;;5050614;28;20632;-67
2023/10/31 14:23:54;;;;;;;3.47;0.70;;;;;;;;;;5052756;28;20395;-67
2023/10/31 14:26:21;;;;;;;3.92;0.70;;;;;;;;;;5057288;28;20041;-67
2023/10/31 14:28:47;;;;;;;3.70;0.70;;;;;;;;;;5057418;28;20411;-67
2023/10/31 14:31:14;;;;;;;2.45;0.70;;;;;;;;;;5057183;28;20037;-67
2023/10/31 14:33:40;;;;;;;3.28;0.73;;;;;;;;;;5057062;28;20051;-67
2023/10/31 14:36:07;;;;;;;1.15;0.70;;;;;;;;;;5038858;28;20057;-67
2023/10/31 14:38:33;;;;;;;2.30;0.52;;;;;;;;;;5039470;28;20045;-67